JAL21 RJOO-RKSI
Flight info
| Callsign | JAL21 |
|---|---|
| Flight time | N/A |
| Altitude | 40000 |
| Route | TOZAN Y38 SAPRA G585 GUKDO GUKDO2H |
| Aircraft | A359/H-SDE2E3GHIJ3J4J5LM1ORWXY/LB1D1 |
Departure
| Time | 2026-04-27 13:47 |
|---|---|
| Airport | Osaka Itami International Airport (RJOO) |
Arrival
| Time | N/A |
|---|---|
| Airport | Incheon International Airport (RKSI) |
| Time | Latitude | Longitude | Altitude | Speed | Heading |
|---|---|---|---|---|---|
| 2026-04-27 13:17 | 34.79342 | 135.43400 | 50 ft | 0 kts | 224° |
| 2026-04-27 13:35 | 34.79354 | 135.43413 | 48 ft | 2 kts | 219° |
| 2026-04-27 13:36 | 34.79367 | 135.43424 | 48 ft | 2 kts | 210° |
| 2026-04-27 13:36 | 34.79382 | 135.43432 | 50 ft | 2 kts | 195° |
| 2026-04-27 13:36 | 34.79398 | 135.43435 | 48 ft | 2 kts | 173° |
| 2026-04-27 13:36 | 34.79414 | 135.43430 | 50 ft | 2 kts | 150° |
| 2026-04-27 13:37 | 34.79426 | 135.43419 | 48 ft | 1 kts | 137° |
| 2026-04-27 13:37 | 34.79428 | 135.43417 | 48 ft | 0 kts | 136° |
| 2026-04-27 13:39 | 34.79427 | 135.43418 | 56 ft | 0 kts | 136° |
| 2026-04-27 13:40 | 34.79375 | 135.43480 | 48 ft | 16 kts | 135° |
| 2026-04-27 13:40 | 34.79287 | 135.43553 | 49 ft | 13 kts | 165° |
| 2026-04-27 13:40 | 34.79251 | 135.43528 | 50 ft | 5 kts | 246° |
| 2026-04-27 13:40 | 34.79215 | 135.43473 | 49 ft | 8 kts | 198° |
| 2026-04-27 13:41 | 34.79166 | 135.43493 | 48 ft | 13 kts | 146° |
| 2026-04-27 13:41 | 34.79073 | 135.43603 | 49 ft | 21 kts | 134° |
| 2026-04-27 13:41 | 34.78964 | 135.43737 | 49 ft | 24 kts | 135° |
| 2026-04-27 13:41 | 34.78839 | 135.43888 | 51 ft | 27 kts | 135° |
| 2026-04-27 13:42 | 34.78701 | 135.44056 | 48 ft | 29 kts | 135° |
| 2026-04-27 13:42 | 34.78555 | 135.44237 | 49 ft | 31 kts | 134° |
| 2026-04-27 13:42 | 34.78512 | 135.44289 | 50 ft | 2 kts | 140° |
| 2026-04-27 13:42 | 34.78489 | 135.44311 | 49 ft | 7 kts | 146° |
| 2026-04-27 13:43 | 34.78460 | 135.44326 | 48 ft | 0 kts | 163° |
| 2026-04-27 13:43 | 34.78458 | 135.44327 | 49 ft | 1 kts | 163° |
| 2026-04-27 13:43 | 34.78406 | 135.44338 | 51 ft | 18 kts | 177° |
| 2026-04-27 13:43 | 34.78262 | 135.44336 | 50 ft | 22 kts | 181° |
| 2026-04-27 13:44 | 34.78134 | 135.44389 | 49 ft | 19 kts | 136° |
| 2026-04-27 13:44 | 34.78038 | 135.44508 | 48 ft | 21 kts | 136° |
| 2026-04-27 13:44 | 34.77926 | 135.44641 | 48 ft | 24 kts | 135° |
| 2026-04-27 13:44 | 34.77801 | 135.44790 | 52 ft | 27 kts | 135° |
| 2026-04-27 13:45 | 34.77664 | 135.44956 | 48 ft | 29 kts | 135° |
| 2026-04-27 13:45 | 34.77516 | 135.45137 | 52 ft | 31 kts | 135° |
| 2026-04-27 13:45 | 34.77346 | 135.45302 | 51 ft | 28 kts | 171° |
| 2026-04-27 13:45 | 34.77247 | 135.45196 | 50 ft | 13 kts | 273° |
| 2026-04-27 13:46 | 34.77278 | 135.45114 | 53 ft | 10 kts | 314° |
| 2026-04-27 13:46 | 34.77340 | 135.45037 | 52 ft | 15 kts | 315° |
| 2026-04-27 13:46 | 34.77468 | 135.44883 | 51 ft | 61 kts | 315° |
| 2026-04-27 13:46 | 34.78054 | 135.44174 | 49 ft | 173 kts | 315° |
| 2026-04-27 13:47 | 34.79073 | 135.42946 | 557 ft | 231 kts | 315° |
| 2026-04-27 13:47 | 34.80348 | 135.41407 | 1293 ft | 287 kts | 315° |
| 2026-04-27 13:47 | 34.81888 | 135.39552 | 2198 ft | 332 kts | 315° |
| 2026-04-27 13:47 | 34.83620 | 135.37482 | 3191 ft | 360 kts | 315° |
| 2026-04-27 13:48 | 34.85424 | 135.35333 | 4190 ft | 366 kts | 314° |
| 2026-04-27 13:48 | 34.87261 | 135.33161 | 5199 ft | 368 kts | 315° |
| 2026-04-27 13:48 | 34.89112 | 135.30997 | 6201 ft | 368 kts | 315° |
| 2026-04-27 13:48 | 34.90959 | 135.28862 | 7172 ft | 365 kts | 316° |
| 2026-04-27 13:49 | 34.92798 | 135.26769 | 8139 ft | 366 kts | 316° |
| 2026-04-27 13:49 | 34.94611 | 135.24599 | 9156 ft | 365 kts | 308° |
| 2026-04-27 13:49 | 34.95834 | 135.21916 | 10140 ft | 363 kts | 287° |
| 2026-04-27 13:49 | 34.96138 | 135.18880 | 11133 ft | 359 kts | 270° |
| 2026-04-27 13:50 | 34.96175 | 135.15851 | 12178 ft | 355 kts | 271° |
| 2026-04-27 13:50 | 34.96361 | 135.12897 | 13235 ft | 352 kts | 275° |
| 2026-04-27 13:50 | 34.96787 | 135.09973 | 14248 ft | 349 kts | 282° |
| 2026-04-27 13:50 | 34.97558 | 135.07166 | 15201 ft | 348 kts | 290° |
| 2026-04-27 13:51 | 34.98707 | 135.04582 | 16176 ft | 347 kts | 300° |
| 2026-04-27 13:51 | 35.00238 | 135.02298 | 17179 ft | 348 kts | 309° |
| 2026-04-27 13:51 | 35.02120 | 135.00427 | 18222 ft | 349 kts | 321° |
| 2026-04-27 13:51 | 35.04270 | 134.99101 | 19094 ft | 353 kts | 332° |
| 2026-04-27 13:52 | 35.05865 | 134.98545 | 19700 ft | 356 kts | 340° |
| 2026-04-27 13:52 | 35.09172 | 134.98151 | 20947 ft | 360 kts | 346° |
| 2026-04-27 13:52 | 35.11654 | 134.97842 | 21941 ft | 357 kts | 343° |
| 2026-04-27 13:52 | 35.14100 | 134.97446 | 22932 ft | 353 kts | 341° |
| 2026-04-27 13:53 | 35.18112 | 134.95011 | 24681 ft | 305 kts | 300° |
| 2026-04-27 13:53 | 35.18825 | 134.92697 | 25530 ft | 289 kts | 272° |
| 2026-04-27 13:53 | 35.18288 | 134.90358 | 26386 ft | 296 kts | 244° |
| 2026-04-27 13:54 | 35.17297 | 134.89166 | 26930 ft | 313 kts | 224° |
| 2026-04-27 13:54 | 35.15125 | 134.88275 | 27458 ft | 354 kts | 201° |
| 2026-04-27 13:54 | 35.12410 | 134.88293 | 25841 ft | 440 kts | 181° |
| 2026-04-27 13:54 | 35.09218 | 134.89572 | 23980 ft | 526 kts | 162° |
| 2026-04-27 13:55 | 35.06061 | 134.91912 | 23869 ft | 513 kts | 154° |
| 2026-04-27 13:55 | 35.03171 | 134.94279 | 23991 ft | 488 kts | 153° |
| 2026-04-27 13:55 | 35.00419 | 134.96548 | 24058 ft | 466 kts | 154° |
| 2026-04-27 13:55 | 34.97789 | 134.98696 | 24122 ft | 445 kts | 155° |
| 2026-04-27 13:56 | 34.95248 | 135.00743 | 23977 ft | 432 kts | 155° |
| 2026-04-27 13:56 | 34.92742 | 135.02718 | 23651 ft | 424 kts | 156° |
| 2026-04-27 13:56 | 34.90267 | 135.04618 | 23266 ft | 416 kts | 157° |
| 2026-04-27 13:56 | 34.87854 | 135.06425 | 22913 ft | 409 kts | 158° |
| 2026-04-27 13:57 | 34.85436 | 135.08189 | 22580 ft | 401 kts | 159° |
| 2026-04-27 13:57 | 34.83055 | 135.09882 | 22252 ft | 393 kts | 159° |
| 2026-04-27 13:57 | 34.80700 | 135.11510 | 21946 ft | 385 kts | 160° |
| 2026-04-27 13:57 | 34.78379 | 135.13072 | 21653 ft | 377 kts | 161° |
| 2026-04-27 13:58 | 34.76096 | 135.14565 | 21351 ft | 369 kts | 161° |
| 2026-04-27 13:58 | 34.73842 | 135.15997 | 21008 ft | 363 kts | 162° |
| 2026-04-27 13:58 | 34.71589 | 135.17376 | 20535 ft | 362 kts | 163° |
| 2026-04-27 13:58 | 34.69328 | 135.18709 | 20087 ft | 360 kts | 163° |
| 2026-04-27 13:59 | 34.67063 | 135.19993 | 19636 ft | 358 kts | 164° |
| 2026-04-27 13:59 | 34.64805 | 135.21225 | 19196 ft | 355 kts | 165° |
| 2026-04-27 13:59 | 34.62534 | 135.22416 | 18746 ft | 353 kts | 165° |
| 2026-04-27 13:59 | 34.60278 | 135.23553 | 18325 ft | 350 kts | 166° |
| 2026-04-27 14:00 | 34.58025 | 135.24641 | 17854 ft | 346 kts | 167° |
| 2026-04-27 14:00 | 34.55739 | 135.25258 | 17353 ft | 329 kts | 185° |
| 2026-04-27 14:00 | 34.53548 | 135.24915 | 16899 ft | 309 kts | 206° |
| 2026-04-27 14:00 | 34.51750 | 135.23670 | 16479 ft | 291 kts | 227° |
| 2026-04-27 14:01 | 34.50523 | 135.21800 | 16107 ft | 279 kts | 239° |
| 2026-04-27 14:01 | 34.49413 | 135.19858 | 15527 ft | 282 kts | 238° |
| 2026-04-27 14:01 | 34.48241 | 135.17953 | 14918 ft | 288 kts | 236° |
| 2026-04-27 14:01 | 34.46979 | 135.16041 | 14304 ft | 292 kts | 234° |
| 2026-04-27 14:02 | 34.45674 | 135.14140 | 13683 ft | 295 kts | 233° |
| 2026-04-27 14:02 | 34.44325 | 135.12243 | 12994 ft | 298 kts | 232° |
| 2026-04-27 14:02 | 34.42943 | 135.10358 | 12315 ft | 301 kts | 231° |
| 2026-04-27 14:02 | 34.41527 | 135.08481 | 11672 ft | 303 kts | 230° |
| 2026-04-27 14:03 | 34.39952 | 135.06771 | 11018 ft | 309 kts | 214° |
| 2026-04-27 14:03 | 34.37891 | 135.05966 | 10375 ft | 319 kts | 188° |
| 2026-04-27 14:03 | 34.35684 | 135.06386 | 9789 ft | 327 kts | 160° |
| 2026-04-27 14:03 | 34.33820 | 135.07962 | 9183 ft | 330 kts | 134° |
| 2026-04-27 14:04 | 34.32672 | 135.10344 | 8649 ft | 329 kts | 108° |
| 2026-04-27 14:04 | 34.32406 | 135.13056 | 8160 ft | 323 kts | 87° |
| 2026-04-27 14:04 | 34.32590 | 135.15745 | 7714 ft | 317 kts | 80° |
| 2026-04-27 14:04 | 34.33184 | 135.18278 | 7281 ft | 309 kts | 65° |
| 2026-04-27 14:05 | 34.34098 | 135.20601 | 6889 ft | 303 kts | 61° |
| 2026-04-27 14:05 | 34.35006 | 135.22877 | 6491 ft | 298 kts | 62° |
| 2026-04-27 14:05 | 34.35844 | 135.25117 | 6097 ft | 293 kts | 63° |
| 2026-04-27 14:05 | 34.36633 | 135.27307 | 6133 ft | 272 kts | 64° |
| 2026-04-27 14:06 | 34.37356 | 135.29352 | 6077 ft | 256 kts | 64° |
| 2026-04-27 14:06 | 34.38016 | 135.31301 | 6015 ft | 243 kts | 65° |
| 2026-04-27 14:06 | 34.38609 | 135.33166 | 5924 ft | 232 kts | 66° |
| 2026-04-27 14:06 | 34.39141 | 135.34961 | 5855 ft | 221 kts | 68° |
| 2026-04-27 14:07 | 34.39609 | 135.36666 | 5741 ft | 212 kts | 69° |
| 2026-04-27 14:07 | 34.40039 | 135.38362 | 5642 ft | 224 kts | 70° |
| 2026-04-27 14:07 | 34.40553 | 135.40489 | 5642 ft | 302 kts | 71° |
| 2026-04-27 14:07 | 34.41182 | 135.43208 | 5562 ft | 361 kts | 73° |
| 2026-04-27 14:08 | 34.41807 | 135.46094 | 5341 ft | 344 kts | 74° |
| 2026-04-27 14:08 | 34.42352 | 135.48837 | 5130 ft | 326 kts | 75° |
| 2026-04-27 14:08 | 34.42916 | 135.51413 | 4929 ft | 308 kts | 68° |
| 2026-04-27 14:08 | 34.43813 | 135.53684 | 4732 ft | 291 kts | 55° |
| 2026-04-27 14:09 | 34.44908 | 135.55668 | 4565 ft | 276 kts | 53° |
| 2026-04-27 14:09 | 34.45951 | 135.57558 | 4385 ft | 264 kts | 54° |
| 2026-04-27 14:09 | 34.46913 | 135.59399 | 4249 ft | 252 kts | 56° |
| 2026-04-27 14:09 | 34.47766 | 135.61147 | 4178 ft | 233 kts | 58° |
| 2026-04-27 14:10 | 34.48513 | 135.62810 | 4056 ft | 217 kts | 59° |
| 2026-04-27 14:10 | 34.49378 | 135.64192 | 3877 ft | 202 kts | 34° |
| 2026-04-27 14:10 | 34.50815 | 135.64753 | 3791 ft | 221 kts | 3° |
| 2026-04-27 14:10 | 34.52275 | 135.64918 | 3708 ft | 202 kts | 3° |
| 2026-04-27 14:11 | 34.53580 | 135.65110 | 3880 ft | 178 kts | 5° |
| 2026-04-27 14:11 | 34.55012 | 135.65366 | 4094 ft | 241 kts | 5° |
| 2026-04-27 14:11 | 34.56855 | 135.65656 | 4079 ft | 272 kts | 5° |
| 2026-04-27 14:11 | 34.58651 | 135.65966 | 3931 ft | 249 kts | 6° |
| 2026-04-27 14:12 | 34.60287 | 135.65920 | 3752 ft | 227 kts | 341° |
| 2026-04-27 14:12 | 34.61472 | 135.64864 | 3621 ft | 203 kts | 307° |
| 2026-04-27 14:12 | 34.62324 | 135.63597 | 3561 ft | 186 kts | 310° |
| 2026-04-27 14:12 | 34.63146 | 135.62497 | 3475 ft | 171 kts | 310° |
| 2026-04-27 14:13 | 34.64045 | 135.61242 | 3427 ft | 235 kts | 310° |
| 2026-04-27 14:13 | 34.65193 | 135.59715 | 3198 ft | 239 kts | 314° |
| 2026-04-27 14:13 | 34.66360 | 135.58356 | 2934 ft | 226 kts | 315° |
| 2026-04-27 14:13 | 34.67444 | 135.57050 | 2737 ft | 211 kts | 314° |
| 2026-04-27 14:14 | 34.68442 | 135.55851 | 2511 ft | 192 kts | 314° |
| 2026-04-27 14:14 | 34.69468 | 135.54644 | 2353 ft | 237 kts | 315° |
| 2026-04-27 14:14 | 34.70692 | 135.53185 | 2089 ft | 236 kts | 313° |
| 2026-04-27 14:14 | 34.71786 | 135.51831 | 1719 ft | 214 kts | 314° |
| 2026-04-27 14:15 | 34.72791 | 135.50595 | 1350 ft | 198 kts | 315° |
| 2026-04-27 14:15 | 34.73708 | 135.49447 | 1003 ft | 185 kts | 315° |
| 2026-04-27 14:15 | 34.74585 | 135.48361 | 665 ft | 175 kts | 314° |
| 2026-04-27 14:15 | 34.75449 | 135.47347 | 501 ft | 191 kts | 317° |
| 2026-04-27 14:16 | 34.76559 | 135.46028 | 363 ft | 233 kts | 315° |
| 2026-04-27 14:16 | 34.77649 | 135.44732 | 196 ft | 201 kts | 313° |
| 2026-04-27 14:16 | 34.78539 | 135.43586 | 88 ft | 172 kts | 319° |
| 2026-04-27 14:16 | 34.79324 | 135.42773 | 49 ft | 104 kts | 319° |